createdAt,value
2018-10-16T00:00:02.706Z,3.80
2018-10-16T00:02:33.543Z,5.93
2018-10-16T00:05:03.487Z,3.33
2018-10-16T00:07:33.445Z,4.23
2018-10-16T00:10:03.555Z,5.40
2018-10-16T00:12:33.874Z,11.63
2018-10-16T00:15:03.904Z,10.33
2018-10-16T00:17:33.836Z,5.00
2018-10-16T00:20:03.735Z,3.03
2018-10-16T00:22:33.727Z,9.00
2018-10-16T00:25:03.768Z,3.17
2018-10-16T00:27:33.788Z,3.53
2018-10-16T00:30:03.723Z,3.47
2018-10-16T00:32:33.791Z,3.27
2018-10-16T00:35:03.667Z,3.30
2018-10-16T00:37:33.714Z,4.93
2018-10-16T00:40:03.727Z,3.33
2018-10-16T00:42:33.682Z,4.47
2018-10-16T00:45:03.851Z,3.40
2018-10-16T00:47:33.719Z,13.80
2018-10-16T00:50:03.721Z,3.73
2018-10-16T00:52:33.623Z,4.00
2018-10-16T00:55:03.690Z,4.07
2018-10-16T00:57:33.964Z,3.60
2018-10-16T01:00:03.905Z,3.67
2018-10-16T01:02:33.851Z,4.17
2018-10-16T01:05:03.747Z,4.00
2018-10-16T01:07:33.822Z,7.53
2018-10-16T01:10:03.837Z,7.07
2018-10-16T01:12:34.426Z,6.30
2018-10-16T01:15:04.494Z,7.60
2018-10-16T01:17:34.383Z,3.00
2018-10-16T01:20:04.452Z,3.10
2018-10-16T01:22:34.826Z,3.33
2018-10-16T01:25:04.853Z,3.33
2018-10-16T01:27:34.802Z,3.47
2018-10-16T01:30:04.940Z,3.60
2018-10-16T01:32:35.263Z,3.90
2018-10-16T01:35:05.543Z,2.60
2018-10-16T01:37:35.550Z,3.63
2018-10-16T01:40:07.078Z,3.93
2018-10-16T01:42:37.615Z,3.90
2018-10-16T01:45:08.747Z,5.80
2018-10-16T01:47:38.795Z,6.63
2018-10-16T01:50:09.175Z,3.80
2018-10-16T01:52:39.450Z,5.73
2018-10-16T01:55:09.536Z,3.40
2018-10-16T01:57:39.728Z,3.93
2018-10-16T02:00:11.396Z,3.13
2018-10-16T02:02:42.618Z,4.73
2018-10-16T02:05:12.683Z,6.10
2018-10-16T02:07:42.709Z,5.77
2018-10-16T02:10:12.747Z,5.13
2018-10-16T02:12:42.923Z,11.73
2018-10-16T02:15:12.850Z,4.83
2018-10-16T02:17:42.909Z,7.10
2018-10-16T02:20:12.818Z,5.30
2018-10-16T02:22:42.855Z,4.57
2018-10-16T02:25:12.874Z,9.73
2018-10-16T02:27:42.870Z,4.50
2018-10-16T02:30:12.978Z,6.53
2018-10-16T02:32:43.986Z,12.80
2018-10-16T02:35:13.996Z,6.00
2018-10-16T02:37:43.963Z,5.70
2018-10-16T02:40:14.035Z,7.50
2018-10-16T02:42:45.109Z,6.47
2018-10-16T02:45:15.072Z,14.50
2018-10-16T02:47:45.029Z,17.13
2018-10-16T02:50:15.051Z,9.70
2018-10-16T02:52:46.032Z,9.57
2018-10-16T02:55:16.070Z,7.03
2018-10-16T02:57:46.420Z,9.50
2018-10-16T03:00:16.398Z,8.13
2018-10-16T03:02:47.385Z,5.97
2018-10-16T03:05:17.310Z,7.17
2018-10-16T03:07:47.276Z,7.43
2018-10-16T03:10:17.175Z,7.07
2018-10-16T03:12:47.769Z,6.27
2018-10-16T03:15:17.730Z,5.27
2018-10-16T03:17:47.839Z,9.90
2018-10-16T03:20:17.950Z,5.80
2018-10-16T03:22:48.266Z,6.73
2018-10-16T03:25:18.327Z,4.43
2018-10-16T03:27:48.345Z,5.33
2018-10-16T03:30:18.434Z,7.23
2018-10-16T03:32:49.410Z,6.93
2018-10-16T03:35:19.349Z,6.90
2018-10-16T03:37:49.343Z,11.33
2018-10-16T03:40:19.496Z,13.20
2018-10-16T03:42:50.136Z,10.73
2018-10-16T03:45:20.079Z,12.43
2018-10-16T03:47:50.090Z,6.37
2018-10-16T03:50:20.528Z,7.10
2018-10-16T03:52:51.091Z,7.00
2018-10-16T03:55:21.246Z,9.20
2018-10-16T03:57:51.729Z,10.60
2018-10-16T04:00:21.771Z,6.30
2018-10-16T04:02:52.861Z,6.73
2018-10-16T04:05:22.805Z,10.10
2018-10-16T04:07:52.753Z,13.20
2018-10-16T04:10:22.643Z,13.30
2018-10-16T04:12:53.334Z,9.27
2018-10-16T04:15:23.208Z,10.50
2018-10-16T04:17:53.384Z,8.57
2018-10-16T04:20:23.406Z,21.40
2018-10-16T04:22:53.987Z,22.33
2018-10-16T04:25:23.919Z,13.97
2018-10-16T04:27:53.937Z,18.10
2018-10-16T04:30:23.932Z,9.17
2018-10-16T04:32:55.126Z,14.37
2018-10-16T04:35:25.062Z,14.40
2018-10-16T04:37:55.000Z,9.60
2018-10-16T04:40:24.958Z,10.10
2018-10-16T04:42:55.434Z,8.73
2018-10-16T04:45:25.409Z,10.67
2018-10-16T04:47:55.464Z,9.07
2018-10-16T04:50:25.484Z,12.00
2018-10-16T04:52:56.455Z,10.40
2018-10-16T04:55:26.427Z,32.30
2018-10-16T04:57:56.579Z,23.43
2018-10-16T05:00:27.312Z,19.40
2018-10-16T05:02:59.103Z,18.33
2018-10-16T05:05:29.173Z,11.77
2018-10-16T05:07:59.147Z,28.57
2018-10-16T05:10:29.184Z,24.53
2018-10-16T05:12:59.977Z,15.73
2018-10-16T05:15:32.944Z,11.90
2018-10-16T05:18:03.161Z,19.07
2018-10-16T05:20:33.052Z,25.80
2018-10-16T05:23:03.421Z,16.20
2018-10-16T05:25:33.469Z,9.60
2018-10-16T05:28:03.488Z,11.83
2018-10-16T05:30:33.487Z,17.17
2018-10-16T05:33:04.424Z,9.00
2018-10-16T05:35:34.380Z,18.47
2018-10-16T05:38:04.347Z,15.03
2018-10-16T05:40:34.251Z,18.87
2018-10-16T05:43:05.442Z,25.40
2018-10-16T05:45:37.949Z,13.67
2018-10-16T05:48:08.047Z,15.03
2018-10-16T05:50:38.019Z,16.00
2018-10-16T05:53:09.044Z,12.07
2018-10-16T05:55:39.237Z,17.50
2018-10-16T05:58:09.629Z,10.23
2018-10-16T06:00:42.001Z,18.40
2018-10-16T06:03:13.059Z,8.93
2018-10-16T06:05:42.980Z,5.43
2018-10-16T06:08:13.007Z,5.00
2018-10-16T06:10:42.972Z,5.50
2018-10-16T06:13:12.970Z,6.10
2018-10-16T06:15:43.002Z,6.73
2018-10-16T06:18:13.110Z,10.50
2018-10-16T06:20:43.188Z,10.20
2018-10-16T06:23:13.499Z,13.73
2018-10-16T06:25:46.316Z,5.93
2018-10-16T06:28:23.573Z,6.10
2018-10-16T06:30:53.597Z,5.93
2018-10-16T06:33:27.321Z,5.33
2018-10-16T06:35:57.389Z,7.07
2018-10-16T06:38:27.477Z,5.30
2018-10-16T06:40:57.667Z,11.73
2018-10-16T06:43:28.545Z,7.43
2018-10-16T06:45:58.540Z,9.23
2018-10-16T06:48:28.844Z,5.00
2018-10-16T06:50:58.630Z,5.43
2018-10-16T06:53:29.098Z,8.83
2018-10-16T06:55:59.009Z,5.17
2018-10-16T06:58:29.503Z,10.53
2018-10-16T07:00:59.359Z,5.83
2018-10-16T07:03:30.254Z,12.00
2018-10-16T07:06:00.153Z,11.60
2018-10-16T07:08:30.179Z,6.50
2018-10-16T07:11:00.096Z,15.60
2018-10-16T07:13:31.004Z,4.70
2018-10-16T07:16:00.888Z,7.40
2018-10-16T07:18:30.806Z,16.77
2018-10-16T07:21:00.917Z,4.57
2018-10-16T07:23:31.802Z,9.67
2018-10-16T07:26:01.797Z,6.47
2018-10-16T07:28:31.760Z,20.20
2018-10-16T07:31:01.745Z,9.60
2018-10-16T07:33:32.464Z,7.53
2018-10-16T07:36:02.526Z,8.20
2018-10-16T07:38:32.601Z,27.20
2018-10-16T07:41:02.634Z,5.77
2018-10-16T07:43:33.348Z,5.40
2018-10-16T07:46:03.359Z,5.70
2018-10-16T07:48:33.296Z,7.30
2018-10-16T07:51:03.468Z,5.10
2018-10-16T07:53:34.554Z,10.40
2018-10-16T07:56:04.528Z,5.80
2018-10-16T07:58:34.634Z,26.57
2018-10-16T08:01:04.645Z,7.10
2018-10-16T08:03:35.540Z,9.03
2018-10-16T08:06:06.061Z,10.20
2018-10-16T08:08:36.012Z,6.93
2018-10-16T08:11:06.139Z,6.10
2018-10-16T08:13:36.386Z,7.13
2018-10-16T08:16:06.859Z,9.73
2018-10-16T08:18:37.004Z,8.00
2018-10-16T08:21:07.010Z,9.13
2018-10-16T12:27:04.108Z,5.33
2018-10-16T12:29:34.059Z,10.70
2018-10-16T12:32:04.141Z,6.90
2018-10-16T12:34:34.079Z,8.27
2018-10-16T12:37:04.325Z,9.83
2018-10-16T12:39:34.240Z,17.10
2018-10-16T12:42:04.388Z,8.53
2018-10-16T12:44:34.362Z,6.53
2018-10-16T12:47:04.961Z,7.40
2018-10-16T12:49:34.993Z,17.43
2018-10-16T12:52:05.031Z,5.23
2018-10-16T12:54:34.985Z,13.17
2018-10-16T12:57:05.854Z,18.40
2018-10-16T12:59:35.778Z,6.57
2018-10-16T13:02:05.852Z,9.10
2018-10-16T13:04:35.790Z,30.40
2018-10-16T13:07:13.120Z,8.90
2018-10-16T13:09:43.067Z,11.87
2018-10-16T13:12:13.141Z,34.97
2018-10-16T13:14:43.023Z,10.17
2018-10-16T13:17:13.413Z,18.93
2018-10-16T13:19:43.420Z,10.07
2018-10-16T13:22:13.408Z,3.10
2018-10-16T13:24:43.326Z,8.13
2018-10-16T13:27:14.803Z,9.60
2018-10-16T13:29:44.783Z,20.30
2018-10-16T13:32:14.796Z,2.77
2018-10-16T13:34:44.637Z,29.77
2018-10-16T13:37:15.387Z,13.37
2018-10-16T13:39:45.098Z,9.63
2018-10-16T13:42:14.961Z,7.23
2018-10-16T13:44:44.979Z,16.00
2018-10-16T13:47:14.860Z,11.63
2018-10-16T13:49:44.765Z,8.60
2018-10-16T13:52:14.586Z,11.07
2018-10-16T13:54:44.482Z,9.37
2018-10-16T13:57:14.144Z,20.97
2018-10-16T13:59:44.191Z,16.03
2018-10-16T14:02:14.295Z,11.90
2018-10-16T14:04:44.210Z,19.10
2018-10-16T14:07:14.097Z,9.17
2018-10-16T14:09:44.654Z,15.53
2018-10-16T14:12:14.609Z,25.63
2018-10-16T14:14:44.528Z,27.67
2018-10-16T14:17:14.905Z,18.37
2018-10-16T14:19:44.831Z,11.03
2018-10-16T14:22:14.888Z,9.37
2018-10-16T14:24:44.887Z,8.13
2018-10-16T14:27:14.787Z,8.60
2018-10-16T14:29:45.050Z,20.33
2018-10-16T14:32:14.970Z,12.93
2018-10-16T14:34:44.977Z,13.43
2018-10-16T14:37:15.338Z,32.97
2018-10-16T14:39:45.379Z,8.13
2018-10-16T14:42:15.416Z,12.03
2018-10-16T14:44:46.007Z,19.00
2018-10-16T14:47:17.701Z,9.43
2018-10-16T14:49:48.599Z,19.33
2018-10-16T14:52:18.503Z,22.77
2018-10-16T14:54:48.285Z,9.63
2018-10-16T14:57:19.777Z,7.33
2018-10-16T14:59:49.685Z,14.67
2018-10-16T15:02:19.627Z,10.53
2018-10-16T15:04:49.454Z,6.00
2018-10-16T15:07:21.615Z,11.20
2018-10-16T15:09:53.002Z,15.37
2018-10-16T15:12:28.027Z,15.17
2018-10-16T15:14:59.041Z,26.87
2018-10-16T15:17:31.070Z,15.70
2018-10-16T15:20:02.033Z,7.60
2018-10-16T15:22:31.960Z,10.83
2018-10-16T15:25:01.861Z,13.40
2018-10-16T15:27:32.715Z,8.53
2018-10-16T15:30:02.912Z,27.13
2018-10-16T15:32:31.447Z,9.13
2018-10-16T15:35:01.266Z,14.63
2018-10-16T15:37:31.164Z,7.33
2018-10-16T15:40:01.205Z,12.03
2018-10-16T15:42:31.069Z,10.33
2018-10-16T15:45:01.025Z,13.10
2018-10-16T15:47:30.990Z,14.80
2018-10-16T15:50:00.962Z,11.27
2018-10-16T15:52:30.868Z,17.20
2018-10-16T15:55:00.703Z,18.27
2018-10-16T15:57:30.582Z,14.10
2018-10-16T16:00:00.648Z,16.50
2018-10-16T16:02:30.505Z,14.93
2018-10-16T16:05:00.448Z,6.27
2018-10-16T16:07:30.364Z,14.23
2018-10-16T16:10:00.370Z,33.57
2018-10-16T16:12:30.443Z,59.87
2018-10-16T16:15:00.387Z,28.90
2018-10-16T16:17:30.288Z,49.43
2018-10-16T16:20:00.406Z,24.43
2018-10-16T16:22:30.345Z,10.73
2018-10-16T16:25:00.179Z,12.67
2018-10-16T16:27:30.083Z,10.93
2018-10-16T16:30:00.101Z,23.03
2018-10-16T16:32:30.254Z,24.43
2018-10-16T16:35:00.286Z,12.93
2018-10-16T16:37:30.218Z,7.33
2018-10-16T16:40:00.264Z,9.60
2018-10-16T16:42:30.298Z,13.20
2018-10-16T16:45:00.228Z,12.70
2018-10-16T16:47:30.154Z,8.43
2018-10-16T16:50:00.214Z,13.53
2018-10-16T16:52:30.221Z,7.60
2018-10-16T16:55:00.151Z,13.27
2018-10-16T16:57:30.251Z,11.80
2018-10-16T17:00:00.230Z,9.33
2018-10-16T17:02:30.115Z,9.90
2018-10-16T17:05:00.044Z,25.57
2018-10-16T17:07:29.943Z,171.57
2018-10-16T17:09:59.996Z,12.33
2018-10-16T17:12:29.985Z,11.70
2018-10-16T17:14:59.941Z,121.37
2018-10-16T17:17:29.963Z,257.07
2018-10-16T17:19:59.894Z,179.10
2018-10-16T17:22:29.894Z,83.87
2018-10-16T17:25:00.068Z,45.27
2018-10-16T17:27:29.887Z,25.30
2018-10-16T17:29:59.755Z,8.90
2018-10-16T17:32:29.798Z,19.93
2018-10-16T17:35:00.154Z,10.37
2018-10-16T17:37:31.007Z,21.17
2018-10-16T17:40:00.976Z,12.87
2018-10-16T17:42:30.813Z,22.63
2018-10-16T17:45:00.585Z,10.03
2018-10-16T17:47:31.402Z,11.53
2018-10-16T17:50:01.347Z,8.27
2018-10-16T17:52:31.119Z,10.30
2018-10-16T17:55:01.048Z,14.53
2018-10-16T17:57:31.657Z,9.20
2018-10-16T18:00:01.612Z,8.47
2018-10-16T18:02:31.534Z,6.30
2018-10-16T18:05:01.627Z,11.40
2018-10-16T18:07:32.622Z,7.67
2018-10-16T18:10:02.602Z,11.83
2018-10-16T18:12:32.527Z,7.67
2018-10-16T18:15:02.573Z,15.63
2018-10-16T18:17:33.277Z,6.40
2018-10-16T18:20:03.038Z,22.07
2018-10-16T18:22:32.958Z,15.90
2018-10-16T18:25:02.934Z,9.07
2018-10-16T18:27:33.184Z,18.77
2018-10-16T18:30:03.582Z,11.03
2018-10-16T18:32:33.438Z,11.60
2018-10-16T18:35:03.739Z,6.57
2018-10-16T18:37:34.040Z,10.87
2018-10-16T18:40:04.072Z,12.60
2018-10-16T18:42:34.003Z,12.17
2018-10-16T18:45:03.933Z,9.23
2018-10-16T18:47:34.770Z,9.20
2018-10-16T18:50:04.795Z,9.40
2018-10-16T18:52:34.829Z,10.20
2018-10-16T18:55:04.789Z,22.20
2018-10-16T18:57:34.663Z,11.97
2018-10-16T19:00:04.693Z,8.53
2018-10-16T19:02:34.679Z,12.40
2018-10-16T19:05:04.740Z,17.13
2018-10-16T19:07:34.542Z,20.10
2018-10-16T19:10:04.797Z,14.03
2018-10-16T19:12:34.770Z,40.57
2018-10-16T19:15:04.932Z,33.00
2018-10-16T19:17:35.395Z,14.10
2018-10-16T19:20:05.558Z,10.80
2018-10-16T19:22:35.438Z,12.40
2018-10-16T19:25:05.467Z,7.40
2018-10-16T19:27:36.019Z,13.07
2018-10-16T19:30:06.955Z,19.53
2018-10-16T19:32:37.025Z,8.40
2018-10-16T19:35:08.159Z,6.87
2018-10-16T19:37:38.499Z,9.03
2018-10-16T19:40:08.519Z,17.50
2018-10-16T19:42:38.473Z,9.40
2018-10-16T19:45:09.465Z,7.30
2018-10-16T19:47:40.351Z,20.10
2018-10-16T19:50:11.113Z,6.77
2018-10-16T19:52:41.350Z,5.53
2018-10-16T19:55:11.295Z,4.50
2018-10-16T19:57:42.007Z,6.90
2018-10-16T20:00:12.082Z,7.03
2018-10-16T20:02:42.003Z,5.23
2018-10-16T20:05:12.118Z,11.43
2018-10-16T20:07:42.589Z,5.30
2018-10-16T20:10:14.077Z,3.50
2018-10-16T20:12:45.572Z,5.60
2018-10-16T20:15:16.519Z,6.10
2018-10-16T20:17:47.192Z,6.93
2018-10-16T20:20:18.478Z,8.30
2018-10-16T20:22:48.395Z,4.33
2018-10-16T20:25:18.377Z,14.30
2018-10-16T20:27:49.203Z,3.60
2018-10-16T20:30:19.152Z,7.13
2018-10-16T20:32:48.992Z,6.33
2018-10-16T20:35:18.968Z,4.60
2018-10-16T20:37:50.079Z,4.33
2018-10-16T20:40:19.961Z,3.53
2018-10-16T20:42:49.814Z,7.37
2018-10-16T20:45:19.842Z,3.47
2018-10-16T20:47:50.573Z,4.30
2018-10-16T20:50:20.448Z,7.63
2018-10-16T20:52:50.446Z,5.80
2018-10-16T20:55:20.384Z,5.33
2018-10-16T20:57:50.532Z,6.33
2018-10-16T21:00:20.513Z,9.23
2018-10-16T21:02:50.402Z,3.70
2018-10-16T21:05:20.638Z,5.27
2018-10-16T21:07:50.342Z,8.00
2018-10-16T21:10:20.231Z,4.70
2018-10-16T21:12:50.122Z,3.37
2018-10-16T21:15:20.133Z,3.30
2018-10-16T21:17:50.225Z,3.30
2018-10-16T21:20:20.147Z,3.90
2018-10-16T21:22:50.087Z,5.03
2018-10-16T21:25:20.040Z,4.00
2018-10-16T21:27:49.799Z,2.77
2018-10-16T21:30:19.825Z,3.07
2018-10-16T21:32:49.829Z,2.13
2018-10-16T21:35:19.839Z,6.43
2018-10-16T21:37:49.913Z,4.07
2018-10-16T21:40:19.949Z,6.63
2018-10-16T21:42:49.814Z,3.30
2018-10-16T21:45:19.690Z,7.93
2018-10-16T21:47:49.519Z,3.00
2018-10-16T21:50:19.305Z,7.43
2018-10-16T21:52:49.165Z,4.93
2018-10-16T21:55:19.065Z,6.07
2018-10-16T21:57:48.995Z,2.90
2018-10-16T22:00:24.271Z,3.20
2018-10-16T22:02:54.397Z,4.20
2018-10-16T22:05:25.126Z,2.83
2018-10-16T22:07:57.257Z,3.17
2018-10-16T22:10:27.272Z,8.23
2018-10-16T22:12:57.201Z,6.30
2018-10-16T22:15:27.083Z,13.13
2018-10-16T22:17:57.326Z,3.07
2018-10-16T22:20:27.206Z,3.93
2018-10-16T22:22:57.280Z,2.63
2018-10-16T22:25:27.109Z,14.13
2018-10-16T22:27:56.934Z,3.80
2018-10-16T22:30:26.819Z,4.83
2018-10-16T22:32:56.696Z,3.60
2018-10-16T22:35:26.778Z,3.80
2018-10-16T22:37:57.001Z,4.07
2018-10-16T22:40:26.931Z,4.83
2018-10-16T22:42:56.733Z,6.27
2018-10-16T22:45:26.642Z,11.63
2018-10-16T22:47:56.571Z,3.40
2018-10-16T22:50:26.507Z,3.80
2018-10-16T22:52:56.548Z,4.80
2018-10-16T22:55:26.383Z,3.50
2018-10-16T22:57:56.258Z,2.97
2018-10-16T23:00:26.201Z,2.73
2018-10-16T23:02:56.134Z,3.73
2018-10-16T23:05:25.978Z,2.77
2018-10-16T23:07:55.889Z,5.00
2018-10-16T23:10:25.648Z,2.97
2018-10-16T23:13:00.882Z,2.07
2018-10-16T23:15:30.852Z,2.10
2018-10-16T23:18:01.344Z,8.17
2018-10-16T23:20:31.429Z,5.93
2018-10-16T23:23:01.313Z,2.30
2018-10-16T23:25:31.291Z,2.23
2018-10-16T23:28:02.446Z,5.10
2018-10-16T23:30:32.250Z,3.80
2018-10-16T23:33:02.189Z,3.60
2018-10-16T23:35:32.149Z,2.67
2018-10-16T23:38:03.326Z,4.17
2018-10-16T23:40:33.214Z,3.77
2018-10-16T23:43:03.250Z,4.90
2018-10-16T23:45:33.091Z,3.00
2018-10-16T23:48:03.792Z,4.43
2018-10-16T23:50:33.852Z,2.03
2018-10-16T23:53:04.058Z,10.73
2018-10-16T23:55:33.791Z,7.80
2018-10-16T23:58:04.874Z,5.03
